sensor_id;sensor_type;location;lat;lon;timestamp;P1;durP1;ratioP1;P2;durP2;ratioP2
16436;SDS011;8328;52.206;21.006;2023-03-04T00:02:00;14.43;;;8.00;;
16436;SDS011;8328;52.206;21.006;2023-03-04T00:04:26;18.52;;;10.00;;
16436;SDS011;8328;52.206;21.006;2023-03-04T00:06:52;17.30;;;8.57;;
16436;SDS011;8328;52.206;21.006;2023-03-04T00:09:17;18.37;;;9.50;;
16436;SDS011;8328;52.206;21.006;2023-03-04T00:11:43;21.80;;;11.27;;
16436;SDS011;8328;52.206;21.006;2023-03-04T00:14:09;17.47;;;7.40;;
16436;SDS011;8328;52.206;21.006;2023-03-04T00:16:35;17.70;;;9.27;;
16436;SDS011;8328;52.206;21.006;2023-03-04T00:19:01;27.00;;;13.83;;
16436;SDS011;8328;52.206;21.006;2023-03-04T00:21:27;20.60;;;9.10;;
16436;SDS011;8328;52.206;21.006;2023-03-04T00:23:53;24.40;;;13.03;;
16436;SDS011;8328;52.206;21.006;2023-03-04T00:26:18;22.73;;;9.97;;
16436;SDS011;8328;52.206;21.006;2023-03-04T00:28:44;17.70;;;9.00;;
16436;SDS011;8328;52.206;21.006;2023-03-04T00:31:10;22.13;;;11.85;;
16436;SDS011;8328;52.206;21.006;2023-03-04T00:33:36;23.67;;;12.53;;
16436;SDS011;8328;52.206;21.006;2023-03-04T00:36:04;28.58;;;12.23;;
16436;SDS011;8328;52.206;21.006;2023-03-04T00:38:30;30.25;;;15.35;;
16436;SDS011;8328;52.206;21.006;2023-03-04T00:40:56;30.73;;;15.57;;
16436;SDS011;8328;52.206;21.006;2023-03-04T00:43:22;29.30;;;13.60;;
16436;SDS011;8328;52.206;21.006;2023-03-04T00:45:48;27.98;;;13.68;;
16436;SDS011;8328;52.206;21.006;2023-03-04T00:48:14;22.43;;;9.83;;
16436;SDS011;8328;52.206;21.006;2023-03-04T00:50:40;28.90;;;11.32;;
16436;SDS011;8328;52.206;21.006;2023-03-04T00:53:07;24.80;;;11.95;;
16436;SDS011;8328;52.206;21.006;2023-03-04T00:55:34;19.15;;;7.68;;
16436;SDS011;8328;52.206;21.006;2023-03-04T00:58:00;25.40;;;11.50;;
16436;SDS011;8328;52.206;21.006;2023-03-04T01:00:26;29.85;;;13.45;;
16436;SDS011;8328;52.206;21.006;2023-03-04T01:02:52;20.00;;;9.47;;
16436;SDS011;8328;52.206;21.006;2023-03-04T01:05:18;36.53;;;16.83;;
16436;SDS011;8328;52.206;21.006;2023-03-04T01:07:46;25.67;;;11.52;;
16436;SDS011;8328;52.206;21.006;2023-03-04T01:10:13;23.73;;;8.83;;
16436;SDS011;8328;52.206;21.006;2023-03-04T01:12:39;23.58;;;11.48;;
16436;SDS011;8328;52.206;21.006;2023-03-04T01:15:06;32.20;;;14.32;;
16436;SDS011;8328;52.206;21.006;2023-03-04T01:17:33;31.38;;;15.80;;
16436;SDS011;8328;52.206;21.006;2023-03-04T01:19:59;34.97;;;16.33;;
16436;SDS011;8328;52.206;21.006;2023-03-04T01:22:28;21.52;;;9.85;;
16436;SDS011;8328;52.206;21.006;2023-03-04T01:24:54;23.98;;;12.07;;
16436;SDS011;8328;52.206;21.006;2023-03-04T01:27:20;37.77;;;18.30;;
16436;SDS011;8328;52.206;21.006;2023-03-04T01:29:45;31.63;;;13.30;;
16436;SDS011;8328;52.206;21.006;2023-03-04T01:32:11;32.80;;;15.70;;
16436;SDS011;8328;52.206;21.006;2023-03-04T01:34:37;28.30;;;14.53;;
16436;SDS011;8328;52.206;21.006;2023-03-04T01:37:03;31.53;;;14.97;;
16436;SDS011;8328;52.206;21.006;2023-03-04T01:39:29;35.47;;;17.88;;
16436;SDS011;8328;52.206;21.006;2023-03-04T01:41:55;23.37;;;10.23;;
16436;SDS011;8328;52.206;21.006;2023-03-04T01:44:21;31.80;;;14.70;;
16436;SDS011;8328;52.206;21.006;2023-03-04T01:46:48;33.40;;;15.03;;
16436;SDS011;8328;52.206;21.006;2023-03-04T01:49:16;25.30;;;11.55;;
16436;SDS011;8328;52.206;21.006;2023-03-04T01:51:43;26.50;;;14.40;;
16436;SDS011;8328;52.206;21.006;2023-03-04T01:54:20;30.52;;;15.30;;
16436;SDS011;8328;52.206;21.006;2023-03-04T01:56:47;23.23;;;10.10;;
16436;SDS011;8328;52.206;21.006;2023-03-04T02:01:56;35.47;;;16.48;;
16436;SDS011;8328;52.206;21.006;2023-03-04T02:04:24;36.83;;;16.83;;
16436;SDS011;8328;52.206;21.006;2023-03-04T02:06:55;25.02;;;11.27;;
16436;SDS011;8328;52.206;21.006;2023-03-04T02:09:23;30.70;;;15.65;;
16436;SDS011;8328;52.206;21.006;2023-03-04T02:11:49;22.50;;;11.00;;
16436;SDS011;8328;52.206;21.006;2023-03-04T02:14:16;29.70;;;14.77;;
16436;SDS011;8328;52.206;21.006;2023-03-04T02:16:43;30.52;;;14.48;;
16436;SDS011;8328;52.206;21.006;2023-03-04T02:19:19;23.65;;;11.00;;
16436;SDS011;8328;52.206;21.006;2023-03-04T02:21:57;29.55;;;14.32;;
16436;SDS011;8328;52.206;21.006;2023-03-04T02:24:27;31.40;;;14.97;;
16436;SDS011;8328;52.206;21.006;2023-03-04T02:27:03;22.38;;;11.15;;
16436;SDS011;8328;52.206;21.006;2023-03-04T02:29:29;23.37;;;11.30;;
16436;SDS011;8328;52.206;21.006;2023-03-04T02:31:55;22.63;;;10.13;;
16436;SDS011;8328;52.206;21.006;2023-03-04T02:34:26;22.13;;;11.00;;
16436;SDS011;8328;52.206;21.006;2023-03-04T02:36:55;30.33;;;15.40;;
16436;SDS011;8328;52.206;21.006;2023-03-04T02:41:57;25.88;;;14.07;;
16436;SDS011;8328;52.206;21.006;2023-03-04T02:44:31;22.50;;;11.45;;
16436;SDS011;8328;52.206;21.006;2023-03-04T02:46:59;24.15;;;9.93;;
16436;SDS011;8328;52.206;21.006;2023-03-04T02:49:27;28.67;;;15.23;;
16436;SDS011;8328;52.206;21.006;2023-03-04T02:52:14;25.13;;;12.50;;
16436;SDS011;8328;52.206;21.006;2023-03-04T02:54:44;23.90;;;9.57;;
16436;SDS011;8328;52.206;21.006;2023-03-04T02:57:10;24.43;;;12.47;;
16436;SDS011;8328;52.206;21.006;2023-03-04T02:59:37;21.13;;;10.75;;
16436;SDS011;8328;52.206;21.006;2023-03-04T03:02:05;23.80;;;11.70;;
16436;SDS011;8328;52.206;21.006;2023-03-04T03:04:31;24.70;;;10.93;;
16436;SDS011;8328;52.206;21.006;2023-03-04T03:06:58;31.98;;;14.98;;
16436;SDS011;8328;52.206;21.006;2023-03-04T03:09:24;29.70;;;15.10;;
16436;SDS011;8328;52.206;21.006;2023-03-04T03:11:50;20.53;;;11.73;;
16436;SDS011;8328;52.206;21.006;2023-03-04T03:14:16;22.20;;;10.50;;
16436;SDS011;8328;52.206;21.006;2023-03-04T03:16:41;27.77;;;13.10;;
16436;SDS011;8328;52.206;21.006;2023-03-04T03:19:07;26.67;;;12.37;;
16436;SDS011;8328;52.206;21.006;2023-03-04T03:21:33;28.13;;;14.00;;
16436;SDS011;8328;52.206;21.006;2023-03-04T03:23:59;30.47;;;16.80;;
16436;SDS011;8328;52.206;21.006;2023-03-04T03:26:24;27.97;;;15.20;;
16436;SDS011;8328;52.206;21.006;2023-03-04T03:28:51;23.60;;;10.95;;
16436;SDS011;8328;52.206;21.006;2023-03-04T03:31:17;23.53;;;11.97;;
16436;SDS011;8328;52.206;21.006;2023-03-04T03:33:44;26.85;;;12.93;;
16436;SDS011;8328;52.206;21.006;2023-03-04T03:36:09;31.03;;;16.87;;
16436;SDS011;8328;52.206;21.006;2023-03-04T03:38:35;27.73;;;13.03;;
16436;SDS011;8328;52.206;21.006;2023-03-04T03:41:01;22.07;;;9.17;;
16436;SDS011;8328;52.206;21.006;2023-03-04T03:43:27;31.90;;;16.07;;
16436;SDS011;8328;52.206;21.006;2023-03-04T03:45:53;29.67;;;14.83;;
16436;SDS011;8328;52.206;21.006;2023-03-04T03:48:18;29.50;;;13.60;;
16436;SDS011;8328;52.206;21.006;2023-03-04T03:50:44;25.90;;;11.27;;
16436;SDS011;8328;52.206;21.006;2023-03-04T03:53:10;17.93;;;9.50;;
16436;SDS011;8328;52.206;21.006;2023-03-04T03:55:36;29.83;;;16.90;;
16436;SDS011;8328;52.206;21.006;2023-03-04T03:58:03;26.80;;;12.52;;
16436;SDS011;8328;52.206;21.006;2023-03-04T04:00:29;29.48;;;14.77;;
16436;SDS011;8328;52.206;21.006;2023-03-04T04:02:55;28.87;;;14.47;;
16436;SDS011;8328;52.206;21.006;2023-03-04T04:05:23;29.48;;;16.30;;
16436;SDS011;8328;52.206;21.006;2023-03-04T04:07:49;23.97;;;9.57;;
16436;SDS011;8328;52.206;21.006;2023-03-04T04:10:15;26.73;;;11.23;;
16436;SDS011;8328;52.206;21.006;2023-03-04T04:12:41;19.13;;;10.00;;
16436;SDS011;8328;52.206;21.006;2023-03-04T04:15:08;20.30;;;9.97;;
16436;SDS011;8328;52.206;21.006;2023-03-04T04:17:35;30.33;;;14.57;;
16436;SDS011;8328;52.206;21.006;2023-03-04T04:20:01;23.63;;;10.27;;
16436;SDS011;8328;52.206;21.006;2023-03-04T04:22:28;20.00;;;10.23;;
16436;SDS011;8328;52.206;21.006;2023-03-04T04:24:53;27.73;;;15.13;;
16436;SDS011;8328;52.206;21.006;2023-03-04T04:27:19;26.57;;;15.17;;
16436;SDS011;8328;52.206;21.006;2023-03-04T04:29:45;26.00;;;13.37;;
16436;SDS011;8328;52.206;21.006;2023-03-04T04:32:11;25.20;;;14.47;;
16436;SDS011;8328;52.206;21.006;2023-03-04T04:34:37;26.63;;;15.17;;
16436;SDS011;8328;52.206;21.006;2023-03-04T04:37:03;28.23;;;13.95;;
16436;SDS011;8328;52.206;21.006;2023-03-04T04:39:29;25.50;;;13.77;;
16436;SDS011;8328;52.206;21.006;2023-03-04T04:41:55;19.97;;;9.17;;
16436;SDS011;8328;52.206;21.006;2023-03-04T04:44:21;30.50;;;15.40;;
16436;SDS011;8328;52.206;21.006;2023-03-04T04:46:46;29.10;;;15.00;;
16436;SDS011;8328;52.206;21.006;2023-03-04T04:49:12;19.67;;;9.67;;
16436;SDS011;8328;52.206;21.006;2023-03-04T04:51:38;26.40;;;10.87;;
16436;SDS011;8328;52.206;21.006;2023-03-04T04:54:04;26.80;;;13.40;;
16436;SDS011;8328;52.206;21.006;2023-03-04T04:56:30;22.02;;;12.23;;
16436;SDS011;8328;52.206;21.006;2023-03-04T04:58:57;21.15;;;9.50;;
16436;SDS011;8328;52.206;21.006;2023-03-04T05:01:24;25.63;;;11.30;;
16436;SDS011;8328;52.206;21.006;2023-03-04T05:03:50;24.48;;;11.98;;
16436;SDS011;8328;52.206;21.006;2023-03-04T05:06:19;25.88;;;11.60;;
16436;SDS011;8328;52.206;21.006;2023-03-04T05:08:46;20.88;;;11.07;;
16436;SDS011;8328;52.206;21.006;2023-03-04T05:11:12;22.70;;;12.47;;
16436;SDS011;8328;52.206;21.006;2023-03-04T05:13:38;18.88;;;10.82;;
16436;SDS011;8328;52.206;21.006;2023-03-04T05:16:04;16.63;;;8.73;;
16436;SDS011;8328;52.206;21.006;2023-03-04T05:18:30;22.25;;;11.98;;
16436;SDS011;8328;52.206;21.006;2023-03-04T05:20:57;25.33;;;13.52;;
16436;SDS011;8328;52.206;21.006;2023-03-04T05:23:26;26.83;;;14.52;;
16436;SDS011;8328;52.206;21.006;2023-03-04T05:25:56;26.27;;;14.98;;
16436;SDS011;8328;52.206;21.006;2023-03-04T05:28:22;23.97;;;9.03;;
16436;SDS011;8328;52.206;21.006;2023-03-04T05:30:48;24.23;;;10.80;;
16436;SDS011;8328;52.206;21.006;2023-03-04T05:33:14;14.65;;;8.73;;
16436;SDS011;8328;52.206;21.006;2023-03-04T05:35:41;25.35;;;13.27;;
16436;SDS011;8328;52.206;21.006;2023-03-04T05:38:08;19.63;;;8.88;;
16436;SDS011;8328;52.206;21.006;2023-03-04T05:40:36;20.48;;;10.55;;
16436;SDS011;8328;52.206;21.006;2023-03-04T05:43:03;23.55;;;10.90;;
16436;SDS011;8328;52.206;21.006;2023-03-04T05:45:29;16.05;;;8.57;;
16436;SDS011;8328;52.206;21.006;2023-03-04T05:47:54;26.67;;;12.70;;
16436;SDS011;8328;52.206;21.006;2023-03-04T05:50:21;19.07;;;11.13;;
16436;SDS011;8328;52.206;21.006;2023-03-04T05:52:47;18.97;;;8.97;;
16436;SDS011;8328;52.206;21.006;2023-03-04T05:55:14;24.65;;;13.50;;
16436;SDS011;8328;52.206;21.006;2023-03-04T05:57:41;24.08;;;12.95;;
16436;SDS011;8328;52.206;21.006;2023-03-04T06:00:08;19.65;;;9.50;;
16436;SDS011;8328;52.206;21.006;2023-03-04T06:02:35;14.75;;;7.82;;
16436;SDS011;8328;52.206;21.006;2023-03-04T06:05:01;13.38;;;8.00;;
16436;SDS011;8328;52.206;21.006;2023-03-04T06:07:28;22.55;;;11.38;;
16436;SDS011;8328;52.206;21.006;2023-03-04T06:09:53;23.90;;;12.30;;
16436;SDS011;8328;52.206;21.006;2023-03-04T06:12:19;21.90;;;11.47;;
16436;SDS011;8328;52.206;21.006;2023-03-04T06:14:45;22.93;;;12.20;;
16436;SDS011;8328;52.206;21.006;2023-03-04T06:17:11;24.02;;;12.27;;
16436;SDS011;8328;52.206;21.006;2023-03-04T06:19:37;19.83;;;9.73;;
16436;SDS011;8328;52.206;21.006;2023-03-04T06:22:06;18.88;;;9.65;;
16436;SDS011;8328;52.206;21.006;2023-03-04T06:24:33;23.45;;;13.13;;
16436;SDS011;8328;52.206;21.006;2023-03-04T06:27:00;20.15;;;11.23;;
16436;SDS011;8328;52.206;21.006;2023-03-04T06:29:25;16.80;;;9.03;;
16436;SDS011;8328;52.206;21.006;2023-03-04T06:31:51;22.77;;;10.43;;
16436;SDS011;8328;52.206;21.006;2023-03-04T06:34:17;21.17;;;12.23;;
16436;SDS011;8328;52.206;21.006;2023-03-04T06:36:43;23.27;;;10.03;;
16436;SDS011;8328;52.206;21.006;2023-03-04T06:39:09;21.50;;;11.83;;
16436;SDS011;8328;52.206;21.006;2023-03-04T06:41:35;20.53;;;12.20;;
16436;SDS011;8328;52.206;21.006;2023-03-04T06:44:01;17.43;;;10.23;;
16436;SDS011;8328;52.206;21.006;2023-03-04T06:46:27;17.27;;;9.57;;
16436;SDS011;8328;52.206;21.006;2023-03-04T06:48:52;18.50;;;8.97;;
16436;SDS011;8328;52.206;21.006;2023-03-04T06:51:18;17.63;;;8.63;;
16436;SDS011;8328;52.206;21.006;2023-03-04T06:53:44;23.00;;;13.90;;
16436;SDS011;8328;52.206;21.006;2023-03-04T06:56:11;18.00;;;9.13;;
16436;SDS011;8328;52.206;21.006;2023-03-04T06:58:40;16.02;;;9.48;;
16436;SDS011;8328;52.206;21.006;2023-03-04T07:01:10;23.03;;;9.90;;
16436;SDS011;8328;52.206;21.006;2023-03-04T07:03:38;20.35;;;10.85;;
16436;SDS011;8328;52.206;21.006;2023-03-04T07:06:04;14.17;;;7.53;;
16436;SDS011;8328;52.206;21.006;2023-03-04T07:08:30;16.85;;;8.30;;
16436;SDS011;8328;52.206;21.006;2023-03-04T07:10:55;17.20;;;9.37;;
16436;SDS011;8328;52.206;21.006;2023-03-04T07:13:21;18.23;;;9.97;;
16436;SDS011;8328;52.206;21.006;2023-03-04T07:15:47;14.30;;;7.67;;
16436;SDS011;8328;52.206;21.006;2023-03-04T07:18:13;17.27;;;8.05;;
16436;SDS011;8328;52.206;21.006;2023-03-04T07:20:39;19.40;;;10.47;;
16436;SDS011;8328;52.206;21.006;2023-03-04T07:23:05;20.30;;;11.50;;
16436;SDS011;8328;52.206;21.006;2023-03-04T07:25:31;17.87;;;11.50;;
16436;SDS011;8328;52.206;21.006;2023-03-04T07:27:56;19.50;;;11.27;;
16436;SDS011;8328;52.206;21.006;2023-03-04T07:30:22;20.10;;;9.40;;
16436;SDS011;8328;52.206;21.006;2023-03-04T07:32:48;15.87;;;8.70;;
16436;SDS011;8328;52.206;21.006;2023-03-04T07:35:14;13.80;;;7.87;;
16436;SDS011;8328;52.206;21.006;2023-03-04T07:37:40;20.77;;;12.53;;
16436;SDS011;8328;52.206;21.006;2023-03-04T07:40:06;20.30;;;9.97;;
16436;SDS011;8328;52.206;21.006;2023-03-04T07:42:33;20.17;;;9.98;;
16436;SDS011;8328;52.206;21.006;2023-03-04T07:44:58;26.13;;;11.50;;
16436;SDS011;8328;52.206;21.006;2023-03-04T07:47:26;14.80;;;6.78;;
16436;SDS011;8328;52.206;21.006;2023-03-04T07:49:52;16.67;;;9.32;;
16436;SDS011;8328;52.206;21.006;2023-03-04T07:52:18;16.23;;;7.90;;
16436;SDS011;8328;52.206;21.006;2023-03-04T07:54:44;14.97;;;8.43;;
16436;SDS011;8328;52.206;21.006;2023-03-04T07:57:11;16.73;;;10.52;;
16436;SDS011;8328;52.206;21.006;2023-03-04T07:59:37;12.87;;;7.53;;
16436;SDS011;8328;52.206;21.006;2023-03-04T08:02:03;23.80;;;11.33;;
16436;SDS011;8328;52.206;21.006;2023-03-04T08:04:28;19.10;;;7.80;;
16436;SDS011;8328;52.206;21.006;2023-03-04T08:06:54;21.07;;;11.37;;
16436;SDS011;8328;52.206;21.006;2023-03-04T08:09:21;17.80;;;7.93;;
16436;SDS011;8328;52.206;21.006;2023-03-04T08:11:47;12.37;;;8.03;;
16436;SDS011;8328;52.206;21.006;2023-03-04T08:14:12;12.13;;;7.00;;
16436;SDS011;8328;52.206;21.006;2023-03-04T08:16:39;17.20;;;10.70;;
16436;SDS011;8328;52.206;21.006;2023-03-04T08:19:04;18.40;;;9.27;;
16436;SDS011;8328;52.206;21.006;2023-03-04T08:21:31;16.07;;;8.73;;
16436;SDS011;8328;52.206;21.006;2023-03-04T08:23:58;16.93;;;9.53;;
16436;SDS011;8328;52.206;21.006;2023-03-04T08:26:28;17.63;;;10.63;;
16436;SDS011;8328;52.206;21.006;2023-03-04T08:29:00;21.25;;;11.02;;
16436;SDS011;8328;52.206;21.006;2023-03-04T08:31:27;16.93;;;7.87;;
16436;SDS011;8328;52.206;21.006;2023-03-04T08:33:53;11.03;;;6.73;;
16436;SDS011;8328;52.206;21.006;2023-03-04T08:36:20;20.30;;;8.77;;
16436;SDS011;8328;52.206;21.006;2023-03-04T08:38:47;17.87;;;9.77;;
16436;SDS011;8328;52.206;21.006;2023-03-04T08:41:13;16.00;;;9.10;;
16436;SDS011;8328;52.206;21.006;2023-03-04T08:43:39;18.23;;;9.23;;
16436;SDS011;8328;52.206;21.006;2023-03-04T08:46:06;14.50;;;8.53;;
16436;SDS011;8328;52.206;21.006;2023-03-04T08:48:32;18.87;;;11.50;;
16436;SDS011;8328;52.206;21.006;2023-03-04T08:50:58;17.07;;;9.70;;
16436;SDS011;8328;52.206;21.006;2023-03-04T08:53:31;16.83;;;8.73;;
16436;SDS011;8328;52.206;21.006;2023-03-04T08:55:56;20.23;;;10.70;;
16436;SDS011;8328;52.206;21.006;2023-03-04T08:58:22;17.60;;;10.83;;
16436;SDS011;8328;52.206;21.006;2023-03-04T09:00:48;19.17;;;11.00;;
16436;SDS011;8328;52.206;21.006;2023-03-04T09:03:16;19.27;;;8.83;;
16436;SDS011;8328;52.206;21.006;2023-03-04T09:05:44;15.00;;;7.17;;
16436;SDS011;8328;52.206;21.006;2023-03-04T09:08:10;18.53;;;10.57;;
16436;SDS011;8328;52.206;21.006;2023-03-04T09:10:36;17.13;;;9.70;;
16436;SDS011;8328;52.206;21.006;2023-03-04T09:13:02;23.50;;;13.07;;
16436;SDS011;8328;52.206;21.006;2023-03-04T09:15:28;18.20;;;10.90;;
16436;SDS011;8328;52.206;21.006;2023-03-04T09:17:54;16.27;;;9.87;;
16436;SDS011;8328;52.206;21.006;2023-03-04T09:20:20;13.67;;;6.43;;
16436;SDS011;8328;52.206;21.006;2023-03-04T09:22:47;23.33;;;9.00;;
16436;SDS011;8328;52.206;21.006;2023-03-04T09:25:13;19.23;;;10.60;;
16436;SDS011;8328;52.206;21.006;2023-03-04T09:27:39;17.40;;;9.83;;
16436;SDS011;8328;52.206;21.006;2023-03-04T09:30:06;13.37;;;8.77;;
16436;SDS011;8328;52.206;21.006;2023-03-04T09:32:32;14.67;;;7.30;;
16436;SDS011;8328;52.206;21.006;2023-03-04T09:34:58;14.90;;;9.00;;
16436;SDS011;8328;52.206;21.006;2023-03-04T09:37:24;18.00;;;9.57;;
16436;SDS011;8328;52.206;21.006;2023-03-04T09:39:50;17.43;;;10.00;;
16436;SDS011;8328;52.206;21.006;2023-03-04T09:42:23;12.40;;;8.17;;
16436;SDS011;8328;52.206;21.006;2023-03-04T09:44:57;18.07;;;8.20;;
16436;SDS011;8328;52.206;21.006;2023-03-04T09:47:23;18.60;;;8.00;;
16436;SDS011;8328;52.206;21.006;2023-03-04T09:49:57;15.30;;;9.10;;
16436;SDS011;8328;52.206;21.006;2023-03-04T09:52:49;14.27;;;6.57;;
16436;SDS011;8328;52.206;21.006;2023-03-04T10:03:52;13.53;;;7.13;;
16436;SDS011;8328;52.206;21.006;2023-03-04T10:06:23;16.73;;;6.87;;
16436;SDS011;8328;52.206;21.006;2023-03-04T10:14:19;10.70;;;6.03;;
16436;SDS011;8328;52.206;21.006;2023-03-04T10:17:13;12.33;;;6.63;;
16436;SDS011;8328;52.206;21.006;2023-03-04T10:19:53;12.43;;;6.77;;
16436;SDS011;8328;52.206;21.006;2023-03-04T10:22:24;14.13;;;6.27;;
16436;SDS011;8328;52.206;21.006;2023-03-04T10:28:17;13.43;;;7.40;;
16436;SDS011;8328;52.206;21.006;2023-03-04T10:31:04;13.20;;;6.83;;
16436;SDS011;8328;52.206;21.006;2023-03-04T10:33:34;14.60;;;4.93;;
16436;SDS011;8328;52.206;21.006;2023-03-04T10:36:16;15.27;;;10.07;;
16436;SDS011;8328;52.206;21.006;2023-03-04T10:39:06;21.20;;;7.37;;
16436;SDS011;8328;52.206;21.006;2023-03-04T10:41:35;14.23;;;6.57;;
16436;SDS011;8328;52.206;21.006;2023-03-04T10:44:03;8.90;;;4.27;;
16436;SDS011;8328;52.206;21.006;2023-03-04T10:46:29;15.07;;;7.50;;
16436;SDS011;8328;52.206;21.006;2023-03-04T10:48:55;11.90;;;6.47;;
16436;SDS011;8328;52.206;21.006;2023-03-04T10:51:26;17.13;;;9.17;;
16436;SDS011;8328;52.206;21.006;2023-03-04T10:53:57;18.93;;;9.57;;
16436;SDS011;8328;52.206;21.006;2023-03-04T10:56:41;16.73;;;9.63;;
16436;SDS011;8328;52.206;21.006;2023-03-04T11:02:01;18.23;;;8.60;;
16436;SDS011;8328;52.206;21.006;2023-03-04T11:04:38;14.50;;;7.00;;
16436;SDS011;8328;52.206;21.006;2023-03-04T11:07:08;14.57;;;7.83;;
16436;SDS011;8328;52.206;21.006;2023-03-04T11:09:35;16.67;;;7.40;;
16436;SDS011;8328;52.206;21.006;2023-03-04T11:12:02;13.37;;;7.07;;
16436;SDS011;8328;52.206;21.006;2023-03-04T11:14:39;20.57;;;8.80;;
16436;SDS011;8328;52.206;21.006;2023-03-04T11:17:18;9.80;;;5.73;;
16436;SDS011;8328;52.206;21.006;2023-03-04T11:19:53;19.97;;;9.03;;
16436;SDS011;8328;52.206;21.006;2023-03-04T11:22:26;17.10;;;6.13;;
16436;SDS011;8328;52.206;21.006;2023-03-04T11:24:58;17.70;;;7.87;;
16436;SDS011;8328;52.206;21.006;2023-03-04T11:28:03;16.93;;;8.47;;
16436;SDS011;8328;52.206;21.006;2023-03-04T11:36:16;19.47;;;9.57;;
16436;SDS011;8328;52.206;21.006;2023-03-04T11:38:48;15.47;;;8.37;;
16436;SDS011;8328;52.206;21.006;2023-03-04T11:41:16;9.53;;;5.63;;
16436;SDS011;8328;52.206;21.006;2023-03-04T11:43:54;15.47;;;8.23;;
16436;SDS011;8328;52.206;21.006;2023-03-04T11:49:13;13.93;;;7.70;;
16436;SDS011;8328;52.206;21.006;2023-03-04T12:00:21;19.23;;;8.80;;
16436;SDS011;8328;52.206;21.006;2023-03-04T12:11:15;9.10;;;5.33;;
16436;SDS011;8328;52.206;21.006;2023-03-04T12:16:44;17.23;;;9.00;;
16436;SDS011;8328;52.206;21.006;2023-03-04T12:24:24;20.10;;;10.70;;
16436;SDS011;8328;52.206;21.006;2023-03-04T12:27:26;15.63;;;8.53;;
16436;SDS011;8328;52.206;21.006;2023-03-04T12:38:26;12.50;;;7.20;;
16436;SDS011;8328;52.206;21.006;2023-03-04T12:43:44;13.63;;;6.67;;
16436;SDS011;8328;52.206;21.006;2023-03-04T12:46:39;12.03;;;5.17;;
16436;SDS011;8328;52.206;21.006;2023-03-04T12:55:15;16.57;;;8.70;;
16436;SDS011;8328;52.206;21.006;2023-03-04T12:57:46;11.63;;;6.67;;
16436;SDS011;8328;52.206;21.006;2023-03-04T13:00:22;16.87;;;8.03;;
16436;SDS011;8328;52.206;21.006;2023-03-04T13:05:37;13.27;;;5.87;;
16436;SDS011;8328;52.206;21.006;2023-03-04T13:11:02;13.20;;;7.50;;
16436;SDS011;8328;52.206;21.006;2023-03-04T13:22:25;12.43;;;6.07;;
16436;SDS011;8328;52.206;21.006;2023-03-04T13:43:49;15.77;;;7.53;;
16436;SDS011;8328;52.206;21.006;2023-03-04T13:51:23;3.93;;;2.03;;
16436;SDS011;8328;52.206;21.006;2023-03-04T13:56:45;3.33;;;1.40;;
16436;SDS011;8328;52.206;21.006;2023-03-04T13:59:24;3.17;;;2.10;;
16436;SDS011;8328;52.206;21.006;2023-03-04T14:01:57;4.03;;;2.10;;
16436;SDS011;8328;52.206;21.006;2023-03-04T14:04:40;3.55;;;1.75;;
16436;SDS011;8328;52.206;21.006;2023-03-04T14:10:06;5.00;;;2.43;;
16436;SDS011;8328;52.206;21.006;2023-03-04T14:12:36;7.10;;;2.80;;
16436;SDS011;8328;52.206;21.006;2023-03-04T14:15:29;3.07;;;2.37;;
16436;SDS011;8328;52.206;21.006;2023-03-04T14:17:56;3.80;;;2.37;;
16436;SDS011;8328;52.206;21.006;2023-03-04T14:22:54;1.93;;;1.50;;
16436;SDS011;8328;52.206;21.006;2023-03-04T14:27:48;3.70;;;1.70;;
16436;SDS011;8328;52.206;21.006;2023-03-04T14:30:21;2.70;;;1.57;;
16436;SDS011;8328;52.206;21.006;2023-03-04T14:32:50;3.87;;;1.97;;
16436;SDS011;8328;52.206;21.006;2023-03-04T14:35:18;5.00;;;2.03;;
16436;SDS011;8328;52.206;21.006;2023-03-04T14:37:49;3.73;;;2.17;;
16436;SDS011;8328;52.206;21.006;2023-03-04T14:40:31;4.90;;;1.67;;
16436;SDS011;8328;52.206;21.006;2023-03-04T14:43:06;4.80;;;2.00;;
16436;SDS011;8328;52.206;21.006;2023-03-04T14:45:40;2.47;;;1.30;;
16436;SDS011;8328;52.206;21.006;2023-03-04T14:48:08;4.33;;;1.80;;
16436;SDS011;8328;52.206;21.006;2023-03-04T14:50:47;4.07;;;1.53;;
16436;SDS011;8328;52.206;21.006;2023-03-04T14:56:02;5.53;;;1.37;;
16436;SDS011;8328;52.206;21.006;2023-03-04T14:58:32;4.70;;;1.93;;
16436;SDS011;8328;52.206;21.006;2023-03-04T15:03:32;3.47;;;1.60;;
16436;SDS011;8328;52.206;21.006;2023-03-04T15:06:06;8.57;;;2.17;;
16436;SDS011;8328;52.206;21.006;2023-03-04T15:08:40;1.43;;;1.03;;
16436;SDS011;8328;52.206;21.006;2023-03-04T15:11:06;3.87;;;1.50;;
16436;SDS011;8328;52.206;21.006;2023-03-04T15:13:42;1.10;;;1.00;;
16436;SDS011;8328;52.206;21.006;2023-03-04T15:16:11;2.43;;;1.50;;
16436;SDS011;8328;52.206;21.006;2023-03-04T15:18:39;2.83;;;1.20;;
16436;SDS011;8328;52.206;21.006;2023-03-04T15:21:31;3.60;;;1.30;;
16436;SDS011;8328;52.206;21.006;2023-03-04T15:23:57;2.00;;;0.80;;
16436;SDS011;8328;52.206;21.006;2023-03-04T15:26:24;2.87;;;1.10;;
16436;SDS011;8328;52.206;21.006;2023-03-04T15:28:51;4.00;;;0.83;;
16436;SDS011;8328;52.206;21.006;2023-03-04T15:31:21;3.33;;;1.90;;
16436;SDS011;8328;52.206;21.006;2023-03-04T15:33:50;1.00;;;0.60;;
16436;SDS011;8328;52.206;21.006;2023-03-04T15:36:19;4.87;;;1.70;;
16436;SDS011;8328;52.206;21.006;2023-03-04T15:38:50;2.93;;;0.93;;
16436;SDS011;8328;52.206;21.006;2023-03-04T15:41:19;2.80;;;1.20;;
16436;SDS011;8328;52.206;21.006;2023-03-04T15:43:52;1.33;;;0.70;;
16436;SDS011;8328;52.206;21.006;2023-03-04T15:46:19;1.37;;;0.93;;
16436;SDS011;8328;52.206;21.006;2023-03-04T15:48:45;3.90;;;1.23;;
16436;SDS011;8328;52.206;21.006;2023-03-04T15:51:13;2.40;;;0.73;;
16436;SDS011;8328;52.206;21.006;2023-03-04T15:53:44;2.70;;;0.87;;
16436;SDS011;8328;52.206;21.006;2023-03-04T15:56:17;4.03;;;1.40;;
16436;SDS011;8328;52.206;21.006;2023-03-04T15:58:55;1.90;;;0.97;;
16436;SDS011;8328;52.206;21.006;2023-03-04T16:01:23;3.97;;;1.10;;
16436;SDS011;8328;52.206;21.006;2023-03-04T16:03:50;4.50;;;1.23;;
16436;SDS011;8328;52.206;21.006;2023-03-04T16:06:17;2.03;;;1.50;;
16436;SDS011;8328;52.206;21.006;2023-03-04T16:08:45;3.20;;;1.30;;
16436;SDS011;8328;52.206;21.006;2023-03-04T16:11:13;2.87;;;1.57;;
16436;SDS011;8328;52.206;21.006;2023-03-04T16:13:51;2.47;;;1.20;;
16436;SDS011;8328;52.206;21.006;2023-03-04T16:16:18;5.33;;;1.30;;
16436;SDS011;8328;52.206;21.006;2023-03-04T16:18:44;2.10;;;0.80;;
16436;SDS011;8328;52.206;21.006;2023-03-04T16:21:13;3.70;;;1.10;;
16436;SDS011;8328;52.206;21.006;2023-03-04T16:23:43;3.05;;;1.10;;
16436;SDS011;8328;52.206;21.006;2023-03-04T16:26:12;5.47;;;2.60;;
16436;SDS011;8328;52.206;21.006;2023-03-04T16:28:39;3.92;;;1.48;;
16436;SDS011;8328;52.206;21.006;2023-03-04T16:31:05;5.38;;;1.40;;
16436;SDS011;8328;52.206;21.006;2023-03-04T16:33:31;3.37;;;1.30;;
16436;SDS011;8328;52.206;21.006;2023-03-04T16:35:57;2.53;;;1.20;;
16436;SDS011;8328;52.206;21.006;2023-03-04T16:38:24;3.73;;;1.00;;
16436;SDS011;8328;52.206;21.006;2023-03-04T16:40:53;3.58;;;1.15;;
16436;SDS011;8328;52.206;21.006;2023-03-04T16:43:20;1.00;;;0.60;;
16436;SDS011;8328;52.206;21.006;2023-03-04T16:45:46;1.17;;;0.70;;
16436;SDS011;8328;52.206;21.006;2023-03-04T16:48:13;2.63;;;1.00;;
16436;SDS011;8328;52.206;21.006;2023-03-04T16:50:39;3.03;;;1.13;;